createdAt,value
2023-04-09T00:02:03.552Z,9.00
2023-04-09T00:04:30.335Z,8.90
2023-04-09T00:06:56.999Z,9.00
2023-04-09T00:09:23.657Z,8.90
2023-04-09T00:11:50.369Z,8.80
2023-04-09T00:14:17.100Z,8.70
2023-04-09T00:16:43.770Z,8.70
2023-04-09T00:19:11.650Z,8.60
2023-04-09T00:21:38.221Z,8.50
2023-04-09T00:24:05.155Z,8.60
2023-04-09T00:26:31.931Z,8.60
2023-04-09T00:28:58.608Z,8.60
2023-04-09T00:31:25.278Z,8.60
2023-04-09T00:33:51.954Z,8.60
2023-04-09T00:36:18.764Z,8.60
2023-04-09T00:38:46.457Z,8.70
2023-04-09T00:41:13.106Z,8.70
2023-04-09T00:43:39.845Z,8.70
2023-04-09T00:46:06.521Z,8.60
2023-04-09T00:48:33.312Z,8.70
2023-04-09T00:51:00.371Z,8.70
2023-04-09T00:53:27.083Z,8.70
2023-04-09T00:55:54.983Z,8.60
2023-04-09T00:58:21.754Z,8.60
2023-04-09T01:00:48.421Z,8.60
2023-04-09T01:03:15.467Z,8.70
2023-04-09T01:06:10.198Z,8.70
2023-04-09T01:09:06.173Z,8.70
2023-04-09T01:11:46.426Z,8.60
2023-04-09T01:14:19.120Z,8.60
2023-04-09T01:16:49.815Z,8.50
2023-04-09T01:19:19.123Z,8.60
2023-04-09T01:21:46.484Z,8.70
2023-04-09T01:24:23.878Z,8.70
2023-04-09T01:27:08.966Z,8.80
2023-04-09T01:29:41.719Z,8.70
2023-04-09T01:32:09.291Z,8.70
2023-04-09T01:34:36.787Z,8.80
2023-04-09T01:37:04.126Z,8.80
2023-04-09T01:39:31.375Z,8.70
2023-04-09T01:41:58.140Z,8.80
2023-04-09T01:44:26.221Z,8.80
2023-04-09T01:46:54.382Z,8.80
2023-04-09T01:49:21.985Z,8.70
2023-04-09T01:51:48.855Z,8.70
2023-04-09T01:54:16.526Z,8.60
2023-04-09T01:56:44.639Z,8.60
2023-04-09T01:59:11.620Z,8.60
2023-04-09T02:01:50.133Z,8.60
2023-04-09T02:04:24.324Z,8.60
2023-04-09T02:06:59.208Z,8.60
2023-04-09T02:09:29.502Z,8.60
2023-04-09T02:11:58.631Z,8.60
2023-04-09T02:14:27.112Z,7.80
2023-04-09T02:16:54.046Z,8.50
2023-04-09T02:19:20.739Z,8.50
2023-04-09T02:21:47.363Z,8.60
2023-04-09T02:24:13.974Z,8.60
2023-04-09T02:26:40.580Z,8.60
2023-04-09T02:29:35.032Z,8.60
2023-04-09T02:32:01.674Z,8.70
2023-04-09T02:34:28.554Z,8.70
2023-04-09T02:36:55.217Z,8.60
2023-04-09T02:39:21.901Z,8.60
2023-04-09T02:41:48.463Z,8.60
2023-04-09T02:44:15.134Z,8.60
2023-04-09T02:46:42.227Z,8.60
2023-04-09T02:49:09.002Z,8.70
2023-04-09T02:51:36.027Z,8.70
2023-04-09T02:54:03.607Z,8.60
2023-04-09T02:56:30.370Z,8.50
2023-04-09T02:58:57.290Z,8.60
2023-04-09T03:01:23.942Z,9.90
2023-04-09T03:03:50.721Z,8.60
2023-04-09T03:06:18.527Z,8.60
2023-04-09T03:08:45.455Z,8.50
2023-04-09T03:11:12.199Z,8.60
2023-04-09T03:13:38.855Z,8.60
2023-04-09T03:16:05.931Z,8.60
2023-04-09T03:18:32.634Z,8.50
2023-04-09T03:20:59.255Z,8.50
2023-04-09T03:23:25.932Z,8.50
2023-04-09T03:26:03.237Z,8.50
2023-04-09T03:28:29.939Z,8.50
2023-04-09T03:30:56.697Z,8.50
2023-04-09T03:33:24.128Z,8.50
2023-04-09T03:35:51.232Z,8.50
2023-04-09T03:38:18.089Z,8.40
2023-04-09T03:40:44.750Z,8.40
2023-04-09T03:43:11.399Z,8.40
2023-04-09T03:45:38.038Z,8.40
2023-04-09T03:48:04.771Z,8.40
2023-04-09T03:50:31.396Z,8.40
2023-04-09T03:52:58.174Z,8.40
2023-04-09T03:55:25.231Z,8.50
2023-04-09T03:57:51.859Z,8.40
2023-04-09T04:00:18.534Z,8.50
2023-04-09T04:02:45.289Z,8.60
2023-04-09T04:05:12.194Z,8.50
2023-04-09T04:07:38.959Z,8.50
2023-04-09T04:10:06.734Z,8.60
2023-04-09T04:12:33.365Z,8.50
2023-04-09T04:15:01.417Z,8.50
2023-04-09T04:17:28.103Z,8.50
2023-04-09T04:19:55.188Z,8.50
2023-04-09T04:22:22.855Z,8.50
2023-04-09T04:24:50.853Z,8.50
2023-04-09T04:27:17.480Z,7.80
2023-04-09T04:29:44.095Z,8.40
2023-04-09T04:32:10.804Z,8.40
2023-04-09T04:34:37.672Z,8.60
2023-04-09T04:37:04.270Z,8.50
2023-04-09T04:39:31.433Z,8.50
2023-04-09T04:41:58.052Z,8.50
2023-04-09T04:44:24.650Z,8.50
2023-04-09T04:46:51.231Z,8.60
2023-04-09T04:49:17.827Z,8.70
2023-04-09T04:51:44.451Z,8.70
2023-04-09T04:54:11.041Z,8.70
2023-04-09T04:56:37.724Z,8.70
2023-04-09T04:59:04.381Z,8.80
2023-04-09T05:01:31.088Z,8.80
2023-04-09T05:03:57.872Z,10.30
2023-04-09T05:06:24.604Z,8.70
2023-04-09T05:08:51.517Z,9.80
2023-04-09T05:11:18.483Z,8.70
2023-04-09T05:13:45.331Z,8.70
2023-04-09T05:16:22.031Z,8.80
2023-04-09T05:18:48.683Z,8.80
2023-04-09T05:21:15.356Z,8.80
2023-04-09T05:23:42.758Z,8.80
2023-04-09T05:26:09.388Z,8.90
2023-04-09T05:28:36.444Z,8.80
2023-04-09T05:31:03.133Z,8.80
2023-04-09T05:33:29.901Z,8.70
2023-04-09T05:35:56.533Z,8.70
2023-04-09T05:38:23.151Z,8.80
2023-04-09T05:40:49.808Z,8.70
2023-04-09T05:43:16.457Z,8.80
2023-04-09T05:45:43.206Z,8.70
2023-04-09T05:48:10.022Z,8.60
2023-04-09T05:50:51.130Z,8.60
2023-04-09T05:53:21.100Z,8.60
2023-04-09T05:55:49.372Z,8.60
2023-04-09T05:58:16.098Z,8.60
2023-04-09T06:00:42.716Z,8.60
2023-04-09T06:03:09.889Z,8.60
2023-04-09T06:05:36.828Z,8.60
2023-04-09T06:08:03.612Z,8.60
2023-04-09T06:10:32.909Z,8.70
2023-04-09T06:12:59.521Z,8.80
2023-04-09T06:15:26.258Z,8.80
2023-04-09T06:17:52.930Z,8.80
2023-04-09T06:20:19.691Z,8.60
2023-04-09T06:22:46.437Z,8.50
2023-04-09T06:25:13.099Z,8.50
2023-04-09T06:27:39.725Z,8.50
2023-04-09T06:30:07.218Z,8.50
2023-04-09T06:32:40.617Z,8.50
2023-04-09T06:35:17.989Z,8.50
2023-04-09T06:37:44.602Z,8.60
2023-04-09T06:40:11.758Z,8.70
2023-04-09T06:42:38.386Z,8.80
2023-04-09T06:45:08.758Z,8.80
2023-04-09T06:47:36.264Z,8.80
2023-04-09T06:50:03.510Z,8.70
2023-04-09T06:52:30.275Z,8.70
2023-04-09T06:54:56.906Z,8.70
2023-04-09T06:57:23.571Z,9.00
2023-04-09T06:59:50.358Z,9.00
2023-04-09T07:02:17.237Z,9.00
2023-04-09T07:04:44.027Z,9.00
2023-04-09T07:07:10.993Z,9.00
2023-04-09T07:09:37.716Z,9.00
2023-04-09T07:12:04.423Z,8.90
2023-04-09T07:14:31.073Z,8.80
2023-04-09T07:16:57.707Z,8.90
2023-04-09T07:19:24.536Z,8.90
2023-04-09T07:21:51.386Z,8.80
2023-04-09T07:24:18.043Z,8.80
2023-04-09T07:26:44.717Z,8.80
2023-04-09T07:29:11.547Z,8.80
2023-04-09T07:31:38.226Z,8.90
2023-04-09T07:34:05.023Z,9.00
2023-04-09T07:36:31.812Z,9.10
2023-04-09T07:38:58.626Z,9.00
2023-04-09T07:41:25.530Z,9.00
2023-04-09T07:43:52.141Z,9.00
2023-04-09T07:46:20.772Z,8.80
2023-04-09T07:48:48.473Z,8.80
2023-04-09T07:51:15.661Z,9.10
2023-04-09T07:53:42.289Z,9.10
2023-04-09T07:56:08.904Z,9.00
2023-04-09T07:58:37.885Z,9.10
2023-04-09T08:01:04.797Z,9.10
2023-04-09T08:03:31.718Z,9.10
2023-04-09T08:05:58.658Z,9.20
2023-04-09T08:08:25.548Z,9.30
2023-04-09T08:10:52.144Z,8.50
2023-04-09T08:13:18.820Z,9.50
2023-04-09T08:15:45.408Z,9.50
2023-04-09T08:18:12.028Z,9.50
2023-04-09T08:20:44.790Z,9.60
2023-04-09T08:23:12.130Z,9.50
2023-04-09T08:25:38.803Z,9.50
2023-04-09T08:28:05.696Z,9.40
2023-04-09T08:30:34.470Z,9.50
2023-04-09T08:33:02.243Z,9.60
2023-04-09T08:35:31.161Z,9.80
2023-04-09T08:37:58.626Z,10.10
2023-04-09T08:40:25.426Z,10.40
2023-04-09T08:42:56.905Z,10.50
2023-04-09T08:45:24.130Z,10.30
2023-04-09T08:47:52.003Z,10.40
2023-04-09T08:50:19.305Z,10.50
2023-04-09T08:52:48.138Z,10.60
2023-04-09T08:55:14.762Z,10.40
2023-04-09T08:57:41.629Z,10.50
2023-04-09T09:00:09.279Z,10.40
2023-04-09T09:02:36.508Z,10.40
2023-04-09T09:05:03.292Z,10.40
2023-04-09T09:07:31.290Z,10.20
2023-04-09T09:10:05.095Z,10.20
2023-04-09T09:12:36.031Z,10.20
2023-04-09T09:15:03.019Z,10.10
2023-04-09T09:17:29.892Z,10.20
2023-04-09T09:19:56.817Z,10.30
2023-04-09T09:22:24.332Z,10.30
2023-04-09T09:24:53.158Z,10.10
2023-04-09T09:27:39.155Z,10.40
2023-04-09T09:30:07.277Z,10.30
2023-04-09T09:32:34.356Z,10.30
2023-04-09T09:35:06.328Z,10.50
2023-04-09T09:37:33.958Z,10.50
2023-04-09T09:40:01.191Z,10.40
2023-04-09T09:42:28.037Z,10.30
2023-04-09T09:44:55.295Z,10.40
2023-04-09T09:47:23.167Z,10.40
2023-04-09T09:49:50.742Z,10.50
2023-04-09T09:52:24.273Z,10.40
2023-04-09T09:54:53.362Z,10.50
2023-04-09T09:57:23.619Z,10.50
2023-04-09T10:00:01.379Z,10.50
2023-04-09T10:02:31.352Z,10.60
2023-04-09T10:05:01.062Z,10.70
2023-04-09T10:07:28.665Z,10.70
2023-04-09T10:09:58.048Z,10.70
2023-04-09T10:12:25.808Z,10.80
2023-04-09T10:14:56.249Z,10.80
2023-04-09T10:17:22.990Z,10.90
2023-04-09T10:20:05.429Z,11.10
2023-04-09T10:22:34.744Z,11.20
2023-04-09T10:25:02.982Z,11.20
2023-04-09T10:27:29.608Z,11.00
2023-04-09T10:29:56.331Z,10.80
2023-04-09T10:32:28.412Z,10.90
2023-04-09T10:34:59.451Z,11.00
2023-04-09T10:37:28.513Z,11.00
2023-04-09T10:39:56.399Z,10.80
2023-04-09T10:42:32.624Z,10.90
2023-04-09T10:45:14.011Z,10.90
2023-04-09T10:47:43.018Z,10.90
2023-04-09T10:50:26.067Z,11.00
2023-04-09T10:52:58.166Z,11.20
2023-04-09T10:55:37.474Z,11.10
2023-04-09T10:58:13.712Z,11.30
2023-04-09T11:00:42.241Z,11.40
2023-04-09T11:03:09.181Z,11.60
2023-04-09T11:05:40.359Z,11.70
2023-04-09T11:08:14.341Z,11.90
2023-04-09T11:10:46.172Z,12.00
2023-04-09T11:13:14.793Z,12.10
2023-04-09T11:15:42.119Z,12.00
2023-04-09T11:18:12.034Z,12.10
2023-04-09T11:20:38.927Z,12.20
2023-04-09T11:23:06.012Z,12.30
2023-04-09T11:25:34.088Z,12.40
2023-04-09T11:28:03.294Z,12.30
2023-04-09T11:30:31.142Z,12.30
2023-04-09T11:32:57.868Z,12.40
2023-04-09T11:35:24.885Z,12.10
2023-04-09T11:37:52.395Z,12.00
2023-04-09T11:40:20.358Z,12.00
2023-04-09T11:42:49.535Z,12.10
2023-04-09T11:45:17.129Z,12.10
2023-04-09T11:47:45.074Z,12.00
2023-04-09T11:50:13.264Z,12.30
2023-04-09T11:52:41.430Z,12.40
2023-04-09T11:55:11.812Z,12.50
2023-04-09T11:57:44.999Z,12.60
2023-04-09T12:00:17.004Z,12.50
2023-04-09T12:02:46.978Z,12.30
2023-04-09T12:05:23.537Z,12.40
2023-04-09T12:07:56.206Z,12.40
2023-04-09T12:10:31.017Z,12.60
2023-04-09T12:13:10.187Z,12.70
2023-04-09T12:15:38.805Z,12.70
2023-04-09T12:18:09.430Z,12.90
2023-04-09T12:20:43.493Z,13.10
2023-04-09T12:23:11.646Z,13.20
2023-04-09T12:25:40.601Z,13.10
2023-04-09T12:28:09.372Z,12.90
2023-04-09T12:30:36.486Z,13.00
2023-04-09T12:33:04.257Z,13.10
2023-04-09T12:35:31.235Z,13.30
2023-04-09T12:37:59.347Z,13.20
2023-04-09T12:40:26.394Z,13.40
2023-04-09T12:42:53.786Z,13.60
2023-04-09T12:45:21.372Z,13.70
2023-04-09T12:47:48.653Z,13.50
2023-04-09T12:50:19.086Z,13.40
2023-04-09T12:52:46.302Z,13.50
2023-04-09T12:55:14.224Z,13.60
2023-04-09T12:57:44.519Z,13.80
2023-04-09T13:00:11.920Z,13.50
2023-04-09T13:02:38.881Z,13.50
2023-04-09T13:05:05.881Z,13.60
2023-04-09T13:07:32.595Z,13.80
2023-04-09T13:09:59.250Z,13.90
2023-04-09T13:12:26.000Z,13.80
2023-04-09T13:14:54.852Z,13.60
2023-04-09T13:17:22.341Z,13.70
2023-04-09T13:19:49.701Z,13.80
2023-04-09T13:22:16.776Z,13.90
2023-04-09T13:24:43.436Z,13.80
2023-04-09T13:27:11.221Z,13.90
2023-04-09T13:29:38.172Z,13.80
2023-04-09T13:32:07.429Z,13.80
2023-04-09T13:34:35.236Z,13.90
2023-04-09T13:37:03.341Z,14.10
2023-04-09T13:39:29.993Z,15.40
2023-04-09T13:41:56.940Z,14.40
2023-04-09T13:44:25.132Z,14.40
2023-04-09T13:46:51.837Z,14.50
2023-04-09T13:49:18.507Z,14.60
2023-04-09T13:51:45.317Z,14.90
2023-04-09T13:54:11.975Z,15.00
2023-04-09T13:56:39.318Z,15.10
2023-04-09T13:59:06.423Z,15.40
2023-04-09T14:01:34.046Z,15.50
2023-04-09T14:04:00.887Z,15.50
2023-04-09T14:06:27.982Z,15.40
2023-04-09T14:08:55.025Z,14.90
2023-04-09T14:11:21.926Z,14.80
2023-04-09T14:13:48.671Z,15.00
2023-04-09T14:16:15.600Z,15.10
2023-04-09T14:18:42.312Z,15.20
2023-04-09T14:21:10.352Z,15.10
2023-04-09T14:23:37.481Z,14.90
2023-04-09T14:26:05.436Z,15.00
2023-04-09T14:28:32.333Z,15.40
2023-04-09T14:30:59.743Z,15.50
2023-04-09T14:33:26.817Z,15.50
2023-04-09T14:35:53.543Z,15.70
2023-04-09T14:38:20.443Z,15.50
2023-04-09T14:40:47.280Z,15.70
2023-04-09T14:43:13.888Z,16.10
2023-04-09T14:45:40.478Z,15.90
2023-04-09T14:48:07.104Z,15.80
2023-04-09T14:50:33.992Z,16.00
2023-04-09T14:53:01.124Z,16.10
2023-04-09T14:55:28.283Z,16.00
2023-04-09T14:57:55.216Z,15.90
2023-04-09T15:00:22.445Z,15.30
2023-04-09T15:02:49.271Z,15.80
2023-04-09T15:05:16.131Z,16.00
2023-04-09T15:07:43.789Z,16.20
2023-04-09T15:10:11.001Z,16.20
2023-04-09T15:12:37.724Z,16.20
2023-04-09T15:15:08.776Z,15.90
2023-04-09T15:17:35.875Z,15.90
2023-04-09T15:20:03.374Z,15.70
2023-04-09T15:22:30.245Z,16.40
2023-04-09T15:24:57.010Z,15.10
2023-04-09T15:27:23.681Z,14.80
2023-04-09T15:29:50.687Z,14.60
2023-04-09T15:32:17.393Z,14.70
2023-04-09T15:34:44.598Z,14.90
2023-04-09T15:37:11.367Z,15.00
2023-04-09T15:39:38.116Z,15.00
2023-04-09T15:42:04.832Z,15.20
2023-04-09T15:44:31.545Z,15.30
2023-04-09T15:46:58.128Z,15.20
2023-04-09T15:49:24.782Z,15.10
2023-04-09T15:51:51.468Z,15.00
2023-04-09T15:54:18.181Z,15.00
2023-04-09T15:56:44.809Z,15.00
2023-04-09T15:59:11.627Z,15.10
2023-04-09T16:01:38.296Z,15.10
2023-04-09T16:04:05.213Z,15.30
2023-04-09T16:06:32.345Z,15.50
2023-04-09T16:08:59.000Z,15.80
2023-04-09T16:11:25.914Z,16.90
2023-04-09T16:13:52.654Z,18.20
2023-04-09T16:16:19.470Z,18.20
2023-04-09T16:18:46.186Z,17.50
2023-04-09T16:21:12.826Z,17.00
2023-04-09T16:23:39.894Z,16.60
2023-04-09T16:26:06.960Z,16.50
2023-04-09T16:28:33.650Z,16.30
2023-04-09T16:31:00.364Z,16.10
2023-04-09T16:33:27.357Z,16.10
2023-04-09T16:35:53.967Z,16.10
2023-04-09T16:38:20.737Z,16.00
2023-04-09T16:40:47.447Z,15.80
2023-04-09T16:43:14.089Z,15.50
2023-04-09T16:45:40.763Z,15.30
2023-04-09T16:48:12.078Z,15.30
2023-04-09T16:50:40.207Z,15.20
2023-04-09T16:53:08.705Z,14.90
2023-04-09T16:55:35.695Z,14.80
2023-04-09T16:58:02.564Z,14.70
2023-04-09T17:00:29.225Z,16.00
2023-04-09T17:02:57.583Z,14.70
2023-04-09T17:05:24.900Z,14.80
2023-04-09T17:07:52.545Z,14.60
2023-04-09T17:10:19.738Z,14.40
2023-04-09T17:12:47.189Z,14.10
2023-04-09T17:15:14.244Z,13.70
2023-04-09T17:17:41.157Z,13.70
2023-04-09T17:20:08.374Z,13.70
2023-04-09T17:22:35.608Z,13.70
2023-04-09T17:25:02.584Z,13.60
2023-04-09T17:27:29.254Z,13.60
2023-04-09T17:29:55.995Z,13.60
2023-04-09T17:32:22.726Z,13.50
2023-04-09T17:34:49.531Z,13.50
2023-04-09T17:37:16.278Z,13.50
2023-04-09T17:39:42.981Z,13.50
2023-04-09T17:42:11.718Z,13.40
2023-04-09T17:44:38.705Z,13.50
2023-04-09T17:47:07.269Z,13.50
2023-04-09T17:49:34.015Z,13.50
2023-04-09T17:52:01.079Z,13.40
2023-04-09T17:54:35.140Z,13.20
2023-04-09T17:57:04.061Z,13.20
2023-04-09T17:59:32.112Z,13.20
2023-04-09T18:01:58.897Z,13.10
2023-04-09T18:04:26.237Z,13.10
2023-04-09T18:06:54.170Z,13.10
2023-04-09T18:09:20.862Z,13.10
2023-04-09T18:11:48.889Z,13.10
2023-04-09T18:14:15.772Z,13.00
2023-04-09T18:16:42.865Z,13.00
2023-04-09T18:19:11.731Z,12.90
2023-04-09T18:21:38.688Z,12.90
2023-04-09T18:24:05.602Z,12.80
2023-04-09T18:30:12.969Z,12.70
2023-04-09T18:32:39.699Z,12.60
2023-04-09T18:38:53.718Z,12.60
2023-04-09T18:41:27.237Z,12.50
2023-04-09T18:43:54.353Z,12.50
2023-04-09T18:46:21.003Z,11.30
2023-04-09T18:48:47.662Z,12.50
2023-04-09T18:51:14.712Z,12.50
2023-04-09T18:53:42.049Z,12.40
2023-04-09T18:56:09.957Z,12.40
2023-04-09T18:58:36.621Z,12.40
2023-04-09T19:01:10.900Z,12.40
2023-04-09T19:03:38.088Z,12.30
2023-04-09T19:06:17.679Z,12.30
2023-04-09T19:08:45.418Z,12.30
2023-04-09T19:11:12.619Z,12.30
2023-04-09T19:13:39.476Z,12.30
2023-04-09T19:16:07.494Z,12.20
2023-04-09T19:18:34.443Z,12.20
2023-04-09T19:21:01.246Z,12.10
2023-04-09T19:23:27.941Z,12.10
2023-04-09T19:25:55.629Z,12.10
2023-04-09T19:28:22.853Z,12.10
2023-04-09T19:30:52.754Z,12.10
2023-04-09T19:33:24.204Z,12.00
2023-04-09T19:35:52.055Z,12.00
2023-04-09T19:38:19.241Z,12.00
2023-04-09T19:40:46.220Z,12.00
2023-04-09T19:43:13.380Z,11.90
2023-04-09T19:45:40.816Z,11.90
2023-04-09T19:48:07.837Z,11.90
2023-04-09T19:50:37.773Z,11.90
2023-04-09T19:53:05.899Z,11.90
2023-04-09T19:55:33.504Z,11.80
2023-04-09T19:58:00.322Z,11.80
2023-04-09T20:00:28.205Z,11.70
2023-04-09T20:02:55.703Z,11.70
2023-04-09T20:05:22.898Z,11.70
2023-04-09T20:07:50.681Z,11.80
2023-04-09T20:10:17.387Z,11.60
2023-04-09T20:12:47.675Z,11.60
2023-04-09T20:15:14.689Z,11.50
2023-04-09T20:17:44.195Z,11.50
2023-04-09T20:20:11.809Z,11.50
2023-04-09T20:22:43.010Z,11.50
2023-04-09T20:25:11.862Z,11.40
2023-04-09T20:27:38.736Z,11.30
2023-04-09T20:30:06.568Z,11.40
2023-04-09T20:32:33.207Z,11.30
2023-04-09T20:34:59.884Z,11.20
2023-04-09T20:37:26.485Z,11.20
2023-04-09T20:39:53.088Z,11.20
2023-04-09T20:42:19.733Z,11.30
2023-04-09T20:44:46.346Z,11.20
2023-04-09T20:47:13.089Z,11.20
2023-04-09T20:49:39.887Z,11.10
2023-04-09T20:52:09.241Z,10.80
2023-04-09T20:54:36.338Z,11.20
2023-04-09T20:57:05.473Z,11.30
2023-04-09T20:59:32.802Z,11.30
2023-04-09T21:01:59.468Z,11.40
2023-04-09T21:04:26.348Z,11.40
2023-04-09T21:06:53.147Z,11.30
2023-04-09T21:09:19.771Z,11.20
2023-04-09T21:11:46.531Z,11.10
2023-04-09T21:14:14.561Z,11.00
2023-04-09T21:16:41.344Z,10.90
2023-04-09T21:19:08.128Z,10.90
2023-04-09T21:21:35.362Z,10.80
2023-04-09T21:24:02.101Z,10.80
2023-04-09T21:26:35.835Z,10.80
2023-04-09T21:29:11.833Z,10.70
2023-04-09T21:31:38.486Z,10.70
2023-04-09T21:34:05.170Z,10.60
2023-04-09T21:36:34.674Z,10.60
2023-04-09T21:39:01.460Z,10.50
2023-04-09T21:41:28.254Z,10.50
2023-04-09T21:43:54.893Z,10.50
2023-04-09T21:46:21.750Z,10.50
2023-04-09T21:48:48.358Z,10.50
2023-04-09T21:51:14.996Z,10.50
2023-04-09T21:53:41.600Z,10.60
2023-04-09T21:56:08.478Z,10.50
2023-04-09T21:58:35.239Z,10.40
2023-04-09T22:01:01.985Z,10.30
2023-04-09T22:03:29.137Z,10.30
2023-04-09T22:05:55.951Z,10.30
2023-04-09T22:08:22.603Z,10.30
2023-04-09T22:10:49.246Z,10.30
2023-04-09T22:13:15.891Z,10.30
2023-04-09T22:15:42.739Z,10.30
2023-04-09T22:18:09.352Z,10.30
2023-04-09T22:20:36.735Z,10.20
2023-04-09T22:23:03.567Z,10.30
2023-04-09T22:25:34.847Z,10.20
2023-04-09T22:28:01.863Z,10.10
2023-04-09T22:30:28.713Z,10.10
2023-04-09T22:32:55.408Z,10.00
2023-04-09T22:35:22.032Z,10.00
2023-04-09T22:37:48.657Z,10.00
2023-04-09T22:40:15.954Z,9.90
2023-04-09T22:42:43.917Z,10.00
2023-04-09T22:45:11.187Z,9.90
2023-04-09T22:47:38.769Z,9.80
2023-04-09T22:50:08.881Z,9.80
2023-04-09T22:52:35.457Z,9.80
2023-04-09T22:55:02.158Z,9.80
2023-04-09T22:57:30.333Z,9.80
2023-04-09T22:59:57.576Z,9.80
2023-04-09T23:02:24.322Z,9.90
2023-04-09T23:04:51.149Z,9.90
2023-04-09T23:07:17.790Z,9.80
2023-04-09T23:09:45.171Z,9.80
2023-04-09T23:12:11.785Z,9.80
2023-04-09T23:14:38.415Z,9.90
2023-04-09T23:17:05.230Z,9.80
2023-04-09T23:19:31.812Z,9.80
2023-04-09T23:21:58.450Z,9.80
2023-04-09T23:24:25.230Z,9.90
2023-04-09T23:26:51.859Z,9.90
2023-04-09T23:29:18.444Z,9.80
2023-04-09T23:31:45.439Z,9.70
2023-04-09T23:34:12.918Z,9.70
2023-04-09T23:36:39.970Z,9.70
2023-04-09T23:39:06.596Z,9.60
2023-04-09T23:41:33.233Z,9.60
2023-04-09T23:43:59.825Z,9.50
2023-04-09T23:46:27.417Z,9.60
2023-04-09T23:48:54.049Z,9.60
2023-04-09T23:51:21.095Z,9.60
2023-04-09T23:53:47.723Z,9.60
2023-04-09T23:56:14.586Z,9.50
2023-04-09T23:58:41.252Z,9.50
